createdAt,value
2023-01-18T00:00:17.384Z,3.19
2023-01-18T00:05:19.600Z,3.07
2023-01-18T00:10:22.543Z,3.07
2023-01-18T00:15:23.971Z,3.08
2023-01-18T00:20:27.188Z,3.06
2023-01-18T00:25:29.877Z,3.10
2023-01-18T00:30:32.302Z,3.15
2023-01-18T00:35:33.704Z,3.07
2023-01-18T00:40:36.013Z,3.04
2023-01-18T00:45:37.375Z,3.09
2023-01-18T00:50:39.117Z,3.01
2023-01-18T00:55:41.693Z,3.08
2023-01-18T01:00:44.190Z,3.06
2023-01-18T01:06:04.368Z,3.03
2023-01-18T01:11:08.946Z,2.93
2023-01-18T01:16:30.425Z,2.86
2023-01-18T01:21:50.350Z,2.67
2023-01-18T01:26:52.296Z,2.62
2023-01-18T01:31:53.717Z,2.74
2023-01-18T01:36:58.471Z,2.90
2023-01-18T01:41:59.866Z,2.71
2023-01-18T01:47:28.026Z,2.59
2023-01-18T01:52:36.642Z,2.78
2023-01-18T01:57:43.216Z,2.58
2023-01-18T02:02:51.150Z,2.51
2023-01-18T02:07:54.331Z,2.37
2023-01-18T02:12:59.528Z,2.36
2023-01-18T02:18:16.044Z,2.56
2023-01-18T02:24:12.746Z,2.60
2023-01-18T02:29:17.332Z,2.71
2023-01-18T02:34:39.166Z,2.66
2023-01-18T02:39:43.485Z,2.73
2023-01-18T02:45:05.615Z,2.80
2023-01-18T02:50:10.122Z,2.90
2023-01-18T02:55:28.536Z,2.89
2023-01-18T03:00:33.801Z,2.82
2023-01-18T03:05:37.622Z,2.91
2023-01-18T03:10:47.699Z,3.00
2023-01-18T03:15:55.922Z,2.77
2023-01-18T03:20:57.412Z,2.83
2023-01-18T03:26:00.282Z,2.91
2023-01-18T03:31:27.318Z,2.89
2023-01-18T03:36:33.041Z,2.95
2023-01-18T03:41:40.048Z,2.91
2023-01-18T03:46:43.720Z,2.43
2023-01-18T03:52:08.754Z,2.55
2023-01-18T03:57:19.393Z,2.68
2023-01-18T04:02:21.688Z,2.78
2023-01-18T04:07:26.171Z,2.72
2023-01-18T04:12:27.809Z,2.79
2023-01-18T04:17:29.568Z,2.77
2023-01-18T04:22:30.886Z,2.86
2023-01-18T04:27:32.240Z,2.51
2023-01-18T04:32:33.816Z,2.62
2023-01-18T04:37:38.055Z,2.71
2023-01-18T04:42:39.422Z,2.76
2023-01-18T04:47:40.780Z,2.81
2023-01-18T04:52:42.175Z,2.91
2023-01-18T04:57:44.117Z,2.97
2023-01-18T05:02:45.487Z,2.83
2023-01-18T05:07:46.911Z,2.68
2023-01-18T05:12:48.654Z,2.73
2023-01-18T05:17:50.028Z,2.75
2023-01-18T05:22:51.352Z,2.69
2023-01-18T05:27:52.842Z,2.80
2023-01-18T05:32:54.151Z,2.86
2023-01-18T05:37:55.876Z,2.92
2023-01-18T05:42:57.531Z,2.76
2023-01-18T05:47:59.921Z,2.80
2023-01-18T05:53:01.653Z,2.82
2023-01-18T05:58:03.943Z,2.80
2023-01-18T06:03:05.338Z,2.81
2023-01-18T06:08:06.716Z,2.90
2023-01-18T06:13:08.229Z,2.91
2023-01-18T06:18:09.571Z,2.85
2023-01-18T06:23:10.981Z,2.77
2023-01-18T06:28:12.412Z,2.88
2023-01-18T06:33:15.132Z,2.77
2023-01-18T06:38:16.603Z,2.41
2023-01-18T06:43:17.921Z,2.71
2023-01-18T06:48:19.253Z,2.88
2023-01-18T06:53:20.638Z,2.82
2023-01-18T06:58:22.048Z,2.73
2023-01-18T07:03:24.236Z,2.61
2023-01-18T07:08:30.968Z,2.75
2023-01-18T07:13:32.413Z,2.58
2023-01-18T07:18:34.454Z,2.52
2023-01-18T07:23:38.295Z,2.66
2023-01-18T07:28:40.425Z,2.70
2023-01-18T07:33:41.815Z,2.72
2023-01-18T07:38:43.991Z,2.64
2023-01-18T07:43:46.002Z,2.85
2023-01-18T07:48:48.378Z,2.94
2023-01-18T07:53:54.680Z,3.04
2023-01-18T07:58:56.204Z,2.96
2023-01-18T08:03:57.519Z,3.03
2023-01-18T08:08:59.594Z,3.11
2023-01-18T08:14:01.004Z,3.08
2023-01-18T08:19:02.488Z,3.10
2023-01-18T08:24:03.911Z,3.18
2023-01-18T08:29:06.362Z,3.19
2023-01-18T08:34:07.657Z,3.25
2023-01-18T08:39:09.069Z,3.31
2023-01-18T08:44:10.381Z,3.42
2023-01-18T08:49:11.880Z,3.51
2023-01-18T08:54:13.230Z,3.54
2023-01-18T08:59:14.663Z,3.68
2023-01-18T09:04:16.075Z,3.82
2023-01-18T09:09:17.408Z,3.80
2023-01-18T09:14:18.927Z,3.83
2023-01-18T09:19:20.351Z,3.93
2023-01-18T09:24:21.876Z,3.76
2023-01-18T09:29:23.403Z,3.91
2023-01-18T09:34:24.788Z,4.02
2023-01-18T09:39:26.372Z,4.17
2023-01-18T09:44:48.307Z,4.33
2023-01-18T09:49:58.324Z,4.41
2023-01-18T09:55:22.639Z,4.53
2023-01-18T10:00:37.116Z,4.63
2023-01-18T10:05:47.251Z,4.87
2023-01-18T10:11:09.699Z,5.01
2023-01-18T10:16:15.751Z,5.17
2023-01-18T10:21:34.088Z,5.45
2023-01-18T10:26:38.660Z,5.33
2023-01-18T10:32:02.877Z,5.66
2023-01-18T10:37:17.047Z,5.62
2023-01-18T10:42:48.994Z,6.12
2023-01-18T10:47:55.891Z,6.66
2023-01-18T10:52:57.519Z,7.41
2023-01-18T10:57:59.506Z,8.32
2023-01-18T11:03:03.839Z,9.25
2023-01-18T11:08:21.925Z,10.80
2023-01-18T11:13:25.662Z,11.23
2023-01-18T11:18:29.575Z,10.55
2023-01-18T11:23:38.286Z,9.91
2023-01-18T11:29:00.003Z,9.40
2023-01-18T11:34:08.256Z,10.64
2023-01-18T11:39:26.331Z,11.77
2023-01-18T11:44:34.766Z,12.73
2023-01-18T11:49:43.030Z,12.63
2023-01-18T11:54:58.567Z,12.97
2023-01-18T12:00:00.456Z,13.56
2023-01-18T12:05:44.958Z,13.40
2023-01-18T12:11:19.916Z,12.92
2023-01-18T12:16:24.478Z,13.28
2023-01-18T12:21:58.551Z,13.42
2023-01-18T12:27:12.310Z,12.72
2023-01-18T12:32:51.990Z,10.36
2023-01-18T12:38:13.553Z,10.00
2023-01-18T12:43:33.673Z,10.36
2023-01-18T12:48:56.436Z,11.27
2023-01-18T12:54:20.722Z,11.46
2023-01-18T12:59:32.408Z,11.11
2023-01-18T13:04:46.417Z,10.24
2023-01-18T13:09:49.870Z,9.36
2023-01-18T13:15:02.086Z,9.10
2023-01-18T13:20:09.947Z,9.10
2023-01-18T13:25:26.357Z,8.83
2023-01-18T13:30:33.722Z,8.40
2023-01-18T13:35:36.098Z,7.93
2023-01-18T13:40:41.891Z,7.48
2023-01-18T13:46:02.261Z,7.66
2023-01-18T13:51:03.849Z,7.41
2023-01-18T13:56:08.636Z,7.59
2023-01-18T14:01:19.600Z,7.41
2023-01-18T14:06:24.278Z,7.44
2023-01-18T14:11:30.445Z,7.25
2023-01-18T14:16:35.635Z,7.05
2023-01-18T14:21:59.019Z,6.97
2023-01-18T14:27:01.502Z,6.79
2023-01-18T14:32:06.693Z,6.50
2023-01-18T14:37:29.486Z,6.37
2023-01-18T14:42:34.790Z,6.23
2023-01-18T14:47:37.580Z,5.82
2023-01-18T14:52:39.877Z,5.87
2023-01-18T14:57:41.276Z,5.82
2023-01-18T15:02:43.755Z,5.70
2023-01-18T15:07:50.040Z,5.59
2023-01-18T15:12:57.664Z,5.51
2023-01-18T15:18:10.509Z,5.35
2023-01-18T15:23:12.699Z,4.77
2023-01-18T15:28:23.646Z,5.20
2023-01-18T15:33:27.337Z,5.05
2023-01-18T15:38:29.106Z,5.20
2023-01-18T15:43:36.221Z,5.25
2023-01-18T15:48:48.309Z,5.13
2023-01-18T15:53:55.815Z,5.15
2023-01-18T15:59:00.749Z,4.90
2023-01-18T16:04:19.608Z,4.85
2023-01-18T16:09:22.987Z,4.80
2023-01-18T16:14:38.295Z,4.67
2023-01-18T16:19:48.875Z,4.68
2023-01-18T16:24:55.665Z,4.65
2023-01-18T16:29:59.940Z,4.55
2023-01-18T16:35:13.892Z,4.39
2023-01-18T16:40:21.971Z,4.30
2023-01-18T16:45:23.713Z,4.30
2023-01-18T16:50:25.201Z,4.29
2023-01-18T16:55:27.157Z,4.20
2023-01-18T17:00:35.726Z,4.08
2023-01-18T17:05:37.193Z,3.98
2023-01-18T17:10:42.237Z,4.12
2023-01-18T17:15:45.532Z,4.11
2023-01-18T17:20:47.059Z,3.95
2023-01-18T17:25:48.928Z,3.98
2023-01-18T17:30:50.440Z,3.89
2023-01-18T17:35:53.651Z,3.69
2023-01-18T17:40:55.041Z,3.67
2023-01-18T17:46:01.585Z,3.65
2023-01-18T17:51:07.692Z,3.57
2023-01-18T17:56:15.161Z,3.51
2023-01-18T18:01:17.633Z,3.61
2023-01-18T18:06:30.285Z,3.46
2023-01-18T18:11:32.614Z,3.28
2023-01-18T18:16:38.514Z,3.33
2023-01-18T18:21:47.567Z,3.40
2023-01-18T18:26:49.206Z,3.34
2023-01-18T18:31:50.983Z,3.31
2023-01-18T18:36:52.607Z,3.30
2023-01-18T18:41:54.186Z,3.15
2023-01-18T18:46:55.546Z,3.19
2023-01-18T18:51:59.978Z,3.19
2023-01-18T18:57:03.241Z,3.02
2023-01-18T19:02:04.880Z,3.03
2023-01-18T19:07:07.221Z,3.06
2023-01-18T19:12:08.579Z,3.01
2023-01-18T19:17:11.671Z,3.06
2023-01-18T19:22:15.020Z,3.17
2023-01-18T19:27:16.614Z,2.93
2023-01-18T19:32:17.954Z,2.97
2023-01-18T19:37:19.640Z,2.83
2023-01-18T19:42:21.250Z,2.75
2023-01-18T19:47:22.851Z,2.74
2023-01-18T19:52:24.414Z,2.70
2023-01-18T19:57:26.543Z,2.53
2023-01-18T20:02:28.320Z,2.40
2023-01-18T20:07:30.082Z,2.38
2023-01-18T20:12:32.820Z,2.39
2023-01-18T20:17:34.557Z,2.35
2023-01-18T20:22:36.059Z,2.26
2023-01-18T20:27:37.486Z,2.15
2023-01-18T20:32:38.836Z,2.11
2023-01-18T20:37:40.228Z,1.92
2023-01-18T20:42:41.668Z,1.87
2023-01-18T20:47:43.266Z,1.95
2023-01-18T20:52:45.423Z,1.91
2023-01-18T20:57:50.702Z,1.90
2023-01-18T21:02:52.162Z,1.76
2023-01-18T21:07:53.656Z,1.70
2023-01-18T21:12:55.042Z,1.77
2023-01-18T21:17:56.503Z,1.72
2023-01-18T21:22:59.221Z,1.57
2023-01-18T21:28:01.124Z,1.68
2023-01-18T21:33:02.762Z,1.73
2023-01-18T21:38:04.774Z,1.53
2023-01-18T21:43:24.368Z,1.49
2023-01-18T21:48:27.717Z,1.32
2023-01-18T21:53:47.839Z,1.36
2023-01-18T21:58:56.080Z,1.59
2023-01-18T22:04:16.163Z,1.52
2023-01-18T22:09:17.511Z,1.53
2023-01-18T22:14:19.144Z,1.56
2023-01-18T22:19:20.500Z,1.22
2023-01-18T22:24:21.889Z,1.29
2023-01-18T22:29:23.181Z,1.09
2023-01-18T22:34:24.561Z,1.10
2023-01-18T22:39:26.010Z,1.12
2023-01-18T22:44:27.590Z,0.84
2023-01-18T22:49:28.916Z,0.71
2023-01-18T22:54:30.297Z,0.76
2023-01-18T22:59:31.590Z,0.95
2023-01-18T23:04:34.202Z,0.90
2023-01-18T23:09:35.727Z,0.91
2023-01-18T23:14:55.810Z,0.71
2023-01-18T23:19:57.196Z,0.80
2023-01-18T23:24:58.809Z,0.60
2023-01-18T23:30:00.588Z,0.67
2023-01-18T23:35:01.981Z,0.51
2023-01-18T23:40:22.522Z,0.59
2023-01-18T23:45:42.984Z,0.70
2023-01-18T23:51:02.933Z,0.72
2023-01-18T23:56:04.360Z,0.59
